Terminal Aerodrome Forecast
Issued by NWS Louisville, KY

Home | Current Version | Previous Version | Text Only | Print | Product List | Glossary On
Versions: 1 2 3 4 5 6 7 8 9 10 11 12 13 14
621
FTUS43 KLMK 251132
TAFBWG
TAF
KBWG 251132Z 2512/2612 00000KT 3SM BR SKC
     FM251430 20005KT P6SM SCT030
     FM260000 VRB03KT P6SM FEW250=

USA.gov is the U.S. government's official web portal to all federal, state and local government web resources and services.